sensor_id;sensor_type;location;lat;lon;timestamp;P1;durP1;ratioP1;P2;durP2;ratioP2
21168;SDS011;10742;51.816;8.662;2022-07-29T00:02:36;6.13;;;2.00;;
21168;SDS011;10742;51.816;8.662;2022-07-29T00:05:57;6.20;;;2.05;;
21168;SDS011;10742;51.816;8.662;2022-07-29T00:09:19;7.68;;;1.90;;
21168;SDS011;10742;51.816;8.662;2022-07-29T00:12:40;3.80;;;2.00;;
21168;SDS011;10742;51.816;8.662;2022-07-29T00:16:02;4.25;;;1.80;;
21168;SDS011;10742;51.816;8.662;2022-07-29T00:19:23;6.20;;;1.77;;
21168;SDS011;10742;51.816;8.662;2022-07-29T00:22:44;11.00;;;2.17;;
21168;SDS011;10742;51.816;8.662;2022-07-29T00:26:06;5.78;;;1.83;;
21168;SDS011;10742;51.816;8.662;2022-07-29T00:29:27;8.50;;;2.17;;
21168;SDS011;10742;51.816;8.662;2022-07-29T00:32:52;5.57;;;1.52;;
21168;SDS011;10742;51.816;8.662;2022-07-29T00:36:14;4.85;;;1.73;;
21168;SDS011;10742;51.816;8.662;2022-07-29T00:39:35;8.50;;;1.90;;
21168;SDS011;10742;51.816;8.662;2022-07-29T00:42:57;5.43;;;1.80;;
21168;SDS011;10742;51.816;8.662;2022-07-29T00:46:18;12.32;;;1.48;;
21168;SDS011;10742;51.816;8.662;2022-07-29T00:49:40;2.67;;;1.40;;
21168;SDS011;10742;51.816;8.662;2022-07-29T00:53:02;7.85;;;1.70;;
21168;SDS011;10742;51.816;8.662;2022-07-29T00:56:24;9.20;;;2.10;;
21168;SDS011;10742;51.816;8.662;2022-07-29T00:59:46;7.40;;;1.90;;
21168;SDS011;10742;51.816;8.662;2022-07-29T01:03:07;5.75;;;1.50;;
21168;SDS011;10742;51.816;8.662;2022-07-29T01:06:29;4.38;;;1.70;;
21168;SDS011;10742;51.816;8.662;2022-07-29T01:09:50;5.70;;;1.80;;
21168;SDS011;10742;51.816;8.662;2022-07-29T01:13:14;3.63;;;1.50;;
21168;SDS011;10742;51.816;8.662;2022-07-29T01:16:50;5.07;;;1.88;;
21168;SDS011;10742;51.816;8.662;2022-07-29T01:20:20;8.02;;;1.50;;
21168;SDS011;10742;51.816;8.662;2022-07-29T01:31:08;6.82;;;1.60;;
21168;SDS011;10742;51.816;8.662;2022-07-29T01:38:10;3.65;;;1.40;;
21168;SDS011;10742;51.816;8.662;2022-07-29T01:41:40;4.72;;;1.85;;
21168;SDS011;10742;51.816;8.662;2022-07-29T01:45:31;7.73;;;1.90;;
21168;SDS011;10742;51.816;8.662;2022-07-29T01:49:07;3.70;;;1.52;;
21168;SDS011;10742;51.816;8.662;2022-07-29T01:52:34;4.53;;;1.50;;
21168;SDS011;10742;51.816;8.662;2022-07-29T01:56:16;5.18;;;1.58;;
21168;SDS011;10742;51.816;8.662;2022-07-29T01:59:40;4.93;;;1.48;;
21168;SDS011;10742;51.816;8.662;2022-07-29T02:03:05;5.07;;;1.65;;
21168;SDS011;10742;51.816;8.662;2022-07-29T02:06:30;6.30;;;1.60;;
21168;SDS011;10742;51.816;8.662;2022-07-29T02:09:53;5.38;;;1.60;;
21168;SDS011;10742;51.816;8.662;2022-07-29T02:13:17;3.55;;;1.33;;
21168;SDS011;10742;51.816;8.662;2022-07-29T02:16:41;4.53;;;1.60;;
21168;SDS011;10742;51.816;8.662;2022-07-29T02:20:04;3.00;;;1.27;;
21168;SDS011;10742;51.816;8.662;2022-07-29T02:23:26;7.00;;;1.98;;
21168;SDS011;10742;51.816;8.662;2022-07-29T02:26:48;5.38;;;1.60;;
21168;SDS011;10742;51.816;8.662;2022-07-29T02:30:12;3.58;;;1.38;;
21168;SDS011;10742;51.816;8.662;2022-07-29T02:33:34;4.75;;;1.70;;
21168;SDS011;10742;51.816;8.662;2022-07-29T02:36:56;2.10;;;1.50;;
21168;SDS011;10742;51.816;8.662;2022-07-29T02:40:17;4.95;;;1.70;;
21168;SDS011;10742;51.816;8.662;2022-07-29T02:43:39;7.88;;;1.90;;
21168;SDS011;10742;51.816;8.662;2022-07-29T02:50:41;3.53;;;1.50;;
21168;SDS011;10742;51.816;8.662;2022-07-29T02:54:10;7.97;;;1.75;;
21168;SDS011;10742;51.816;8.662;2022-07-29T02:57:59;2.50;;;1.52;;
21168;SDS011;10742;51.816;8.662;2022-07-29T03:01:23;5.28;;;1.70;;
21168;SDS011;10742;51.816;8.662;2022-07-29T03:04:46;4.20;;;1.70;;
21168;SDS011;10742;51.816;8.662;2022-07-29T03:08:10;3.95;;;1.65;;
21168;SDS011;10742;51.816;8.662;2022-07-29T03:11:32;4.35;;;1.50;;
21168;SDS011;10742;51.816;8.662;2022-07-29T03:14:55;5.95;;;1.63;;
21168;SDS011;10742;51.816;8.662;2022-07-29T03:18:17;4.82;;;1.75;;
21168;SDS011;10742;51.816;8.662;2022-07-29T03:21:39;4.35;;;1.60;;
21168;SDS011;10742;51.816;8.662;2022-07-29T03:25:07;6.43;;;1.92;;
21168;SDS011;10742;51.816;8.662;2022-07-29T03:28:29;5.53;;;1.70;;
21168;SDS011;10742;51.816;8.662;2022-07-29T03:31:51;5.45;;;1.73;;
21168;SDS011;10742;51.816;8.662;2022-07-29T03:35:12;4.05;;;1.77;;
21168;SDS011;10742;51.816;8.662;2022-07-29T03:38:34;4.18;;;1.60;;
21168;SDS011;10742;51.816;8.662;2022-07-29T03:41:56;7.68;;;1.58;;
21168;SDS011;10742;51.816;8.662;2022-07-29T03:45:21;4.05;;;1.75;;
21168;SDS011;10742;51.816;8.662;2022-07-29T03:48:45;6.93;;;1.65;;
21168;SDS011;10742;51.816;8.662;2022-07-29T03:52:09;7.40;;;1.40;;
21168;SDS011;10742;51.816;8.662;2022-07-29T03:55:32;5.73;;;1.90;;
21168;SDS011;10742;51.816;8.662;2022-07-29T03:59:07;6.55;;;1.98;;
21168;SDS011;10742;51.816;8.662;2022-07-29T04:02:30;5.68;;;1.70;;
21168;SDS011;10742;51.816;8.662;2022-07-29T04:06:03;8.00;;;1.83;;
21168;SDS011;10742;51.816;8.662;2022-07-29T04:09:28;3.17;;;1.70;;
21168;SDS011;10742;51.816;8.662;2022-07-29T04:12:49;3.83;;;1.60;;
21168;SDS011;10742;51.816;8.662;2022-07-29T04:16:11;7.38;;;1.75;;
21168;SDS011;10742;51.816;8.662;2022-07-29T04:19:33;5.75;;;1.75;;
21168;SDS011;10742;51.816;8.662;2022-07-29T04:22:54;2.70;;;1.58;;
21168;SDS011;10742;51.816;8.662;2022-07-29T04:26:16;4.60;;;1.50;;
21168;SDS011;10742;51.816;8.662;2022-07-29T04:29:38;5.70;;;1.73;;
21168;SDS011;10742;51.816;8.662;2022-07-29T04:33:00;5.93;;;1.70;;
21168;SDS011;10742;51.816;8.662;2022-07-29T04:36:22;3.28;;;1.30;;
21168;SDS011;10742;51.816;8.662;2022-07-29T04:39:44;4.38;;;1.67;;
21168;SDS011;10742;51.816;8.662;2022-07-29T04:43:05;3.15;;;1.50;;
21168;SDS011;10742;51.816;8.662;2022-07-29T04:46:26;5.32;;;1.55;;
21168;SDS011;10742;51.816;8.662;2022-07-29T04:49:48;5.35;;;1.58;;
21168;SDS011;10742;51.816;8.662;2022-07-29T04:53:09;5.82;;;1.75;;
21168;SDS011;10742;51.816;8.662;2022-07-29T04:56:31;1.50;;;1.40;;
21168;SDS011;10742;51.816;8.662;2022-07-29T04:59:52;5.25;;;1.67;;
21168;SDS011;10742;51.816;8.662;2022-07-29T05:03:14;4.20;;;1.58;;
21168;SDS011;10742;51.816;8.662;2022-07-29T05:06:35;2.20;;;1.70;;
21168;SDS011;10742;51.816;8.662;2022-07-29T05:09:56;6.77;;;1.80;;
21168;SDS011;10742;51.816;8.662;2022-07-29T05:13:18;4.68;;;1.80;;
21168;SDS011;10742;51.816;8.662;2022-07-29T05:16:39;4.87;;;1.83;;
21168;SDS011;10742;51.816;8.662;2022-07-29T05:20:00;6.45;;;1.77;;
21168;SDS011;10742;51.816;8.662;2022-07-29T05:23:22;6.10;;;1.48;;
21168;SDS011;10742;51.816;8.662;2022-07-29T05:26:44;2.63;;;1.42;;
21168;SDS011;10742;51.816;8.662;2022-07-29T05:30:05;2.83;;;1.50;;
21168;SDS011;10742;51.816;8.662;2022-07-29T05:33:27;7.38;;;1.38;;
21168;SDS011;10742;51.816;8.662;2022-07-29T05:36:48;5.85;;;2.05;;
21168;SDS011;10742;51.816;8.662;2022-07-29T05:40:10;4.10;;;1.65;;
21168;SDS011;10742;51.816;8.662;2022-07-29T05:43:32;4.68;;;1.60;;
21168;SDS011;10742;51.816;8.662;2022-07-29T05:46:53;3.78;;;1.58;;
21168;SDS011;10742;51.816;8.662;2022-07-29T05:50:15;5.40;;;1.70;;
21168;SDS011;10742;51.816;8.662;2022-07-29T05:53:36;6.80;;;1.83;;
21168;SDS011;10742;51.816;8.662;2022-07-29T05:56:58;8.18;;;1.70;;
21168;SDS011;10742;51.816;8.662;2022-07-29T06:00:19;5.30;;;1.50;;
21168;SDS011;10742;51.816;8.662;2022-07-29T06:03:40;6.10;;;1.77;;
21168;SDS011;10742;51.816;8.662;2022-07-29T06:07:02;5.95;;;1.50;;
21168;SDS011;10742;51.816;8.662;2022-07-29T06:10:23;4.53;;;1.60;;
21168;SDS011;10742;51.816;8.662;2022-07-29T06:13:45;5.40;;;1.60;;
21168;SDS011;10742;51.816;8.662;2022-07-29T06:17:06;6.00;;;1.60;;
21168;SDS011;10742;51.816;8.662;2022-07-29T06:20:28;4.13;;;1.52;;
21168;SDS011;10742;51.816;8.662;2022-07-29T06:23:50;4.80;;;1.50;;
21168;SDS011;10742;51.816;8.662;2022-07-29T06:27:13;5.47;;;1.58;;
21168;SDS011;10742;51.816;8.662;2022-07-29T06:30:34;7.68;;;1.83;;
21168;SDS011;10742;51.816;8.662;2022-07-29T06:33:55;8.35;;;1.83;;
21168;SDS011;10742;51.816;8.662;2022-07-29T06:37:17;4.50;;;1.75;;
21168;SDS011;10742;51.816;8.662;2022-07-29T06:40:42;4.60;;;1.50;;
21168;SDS011;10742;51.816;8.662;2022-07-29T06:44:42;4.47;;;1.58;;
21168;SDS011;10742;51.816;8.662;2022-07-29T06:48:03;8.10;;;1.67;;
21168;SDS011;10742;51.816;8.662;2022-07-29T06:51:25;6.07;;;1.58;;
21168;SDS011;10742;51.816;8.662;2022-07-29T06:54:48;3.65;;;1.48;;
21168;SDS011;10742;51.816;8.662;2022-07-29T06:58:10;3.20;;;1.70;;
21168;SDS011;10742;51.816;8.662;2022-07-29T07:01:31;4.85;;;1.60;;
21168;SDS011;10742;51.816;8.662;2022-07-29T07:04:53;2.58;;;1.35;;
21168;SDS011;10742;51.816;8.662;2022-07-29T07:08:14;2.97;;;1.70;;
21168;SDS011;10742;51.816;8.662;2022-07-29T07:11:36;4.85;;;1.70;;
21168;SDS011;10742;51.816;8.662;2022-07-29T07:14:58;4.25;;;1.80;;
21168;SDS011;10742;51.816;8.662;2022-07-29T07:18:19;3.95;;;1.83;;
21168;SDS011;10742;51.816;8.662;2022-07-29T07:21:40;5.25;;;1.40;;
21168;SDS011;10742;51.816;8.662;2022-07-29T07:25:02;2.83;;;1.73;;
21168;SDS011;10742;51.816;8.662;2022-07-29T07:28:24;3.13;;;1.67;;
21168;SDS011;10742;51.816;8.662;2022-07-29T07:31:45;6.20;;;1.58;;
21168;SDS011;10742;51.816;8.662;2022-07-29T07:35:07;6.22;;;1.50;;
21168;SDS011;10742;51.816;8.662;2022-07-29T07:38:29;4.70;;;1.60;;
21168;SDS011;10742;51.816;8.662;2022-07-29T07:41:50;3.92;;;1.65;;
21168;SDS011;10742;51.816;8.662;2022-07-29T07:45:12;4.00;;;1.70;;
21168;SDS011;10742;51.816;8.662;2022-07-29T07:48:34;5.85;;;1.65;;
21168;SDS011;10742;51.816;8.662;2022-07-29T07:51:56;3.17;;;1.40;;
21168;SDS011;10742;51.816;8.662;2022-07-29T07:55:18;8.40;;;2.10;;
21168;SDS011;10742;51.816;8.662;2022-07-29T07:58:39;8.48;;;2.13;;
21168;SDS011;10742;51.816;8.662;2022-07-29T08:02:01;6.45;;;1.90;;
21168;SDS011;10742;51.816;8.662;2022-07-29T08:05:22;8.73;;;2.22;;
21168;SDS011;10742;51.816;8.662;2022-07-29T08:08:44;7.53;;;2.03;;
21168;SDS011;10742;51.816;8.662;2022-07-29T08:12:05;6.30;;;1.98;;
21168;SDS011;10742;51.816;8.662;2022-07-29T08:15:26;6.00;;;1.85;;
21168;SDS011;10742;51.816;8.662;2022-07-29T08:18:48;6.43;;;1.70;;
21168;SDS011;10742;51.816;8.662;2022-07-29T08:22:09;8.45;;;1.73;;
21168;SDS011;10742;51.816;8.662;2022-07-29T08:25:30;3.75;;;1.65;;
21168;SDS011;10742;51.816;8.662;2022-07-29T08:28:52;7.05;;;2.05;;
21168;SDS011;10742;51.816;8.662;2022-07-29T08:32:13;3.33;;;1.65;;
21168;SDS011;10742;51.816;8.662;2022-07-29T08:35:41;2.55;;;1.58;;
21168;SDS011;10742;51.816;8.662;2022-07-29T08:39:03;5.75;;;2.33;;
21168;SDS011;10742;51.816;8.662;2022-07-29T08:42:24;5.38;;;1.70;;
21168;SDS011;10742;51.816;8.662;2022-07-29T08:45:46;5.05;;;1.90;;
21168;SDS011;10742;51.816;8.662;2022-07-29T08:49:10;5.93;;;1.90;;
21168;SDS011;10742;51.816;8.662;2022-07-29T08:52:31;6.97;;;1.90;;
21168;SDS011;10742;51.816;8.662;2022-07-29T08:55:55;9.50;;;2.47;;
21168;SDS011;10742;51.816;8.662;2022-07-29T08:59:19;4.38;;;1.80;;
21168;SDS011;10742;51.816;8.662;2022-07-29T09:02:44;7.40;;;2.22;;
21168;SDS011;10742;51.816;8.662;2022-07-29T09:06:07;4.13;;;2.03;;
21168;SDS011;10742;51.816;8.662;2022-07-29T09:09:29;2.95;;;1.73;;
21168;SDS011;10742;51.816;8.662;2022-07-29T09:12:51;3.65;;;1.55;;
21168;SDS011;10742;51.816;8.662;2022-07-29T09:16:13;9.43;;;1.70;;
21168;SDS011;10742;51.816;8.662;2022-07-29T09:19:42;4.28;;;1.80;;
21168;SDS011;10742;51.816;8.662;2022-07-29T09:23:07;10.55;;;1.80;;
21168;SDS011;10742;51.816;8.662;2022-07-29T09:26:29;6.03;;;1.90;;
21168;SDS011;10742;51.816;8.662;2022-07-29T09:29:55;6.03;;;1.75;;
21168;SDS011;10742;51.816;8.662;2022-07-29T09:33:21;4.30;;;1.58;;
21168;SDS011;10742;51.816;8.662;2022-07-29T09:36:44;6.65;;;2.10;;
21168;SDS011;10742;51.816;8.662;2022-07-29T09:40:17;6.10;;;1.80;;
21168;SDS011;10742;51.816;8.662;2022-07-29T09:43:41;5.88;;;1.67;;
21168;SDS011;10742;51.816;8.662;2022-07-29T09:47:16;6.60;;;2.00;;
21168;SDS011;10742;51.816;8.662;2022-07-29T09:50:39;3.03;;;1.90;;
21168;SDS011;10742;51.816;8.662;2022-07-29T09:54:01;7.28;;;1.63;;
21168;SDS011;10742;51.816;8.662;2022-07-29T09:57:41;3.65;;;1.70;;
21168;SDS011;10742;51.816;8.662;2022-07-29T10:01:02;6.47;;;1.77;;
21168;SDS011;10742;51.816;8.662;2022-07-29T10:04:35;3.47;;;1.70;;
21168;SDS011;10742;51.816;8.662;2022-07-29T10:07:58;10.93;;;2.08;;
21168;SDS011;10742;51.816;8.662;2022-07-29T10:11:20;6.13;;;2.00;;
21168;SDS011;10742;51.816;8.662;2022-07-29T10:14:41;6.63;;;1.88;;
21168;SDS011;10742;51.816;8.662;2022-07-29T10:18:02;4.35;;;1.70;;
21168;SDS011;10742;51.816;8.662;2022-07-29T10:21:27;7.72;;;2.50;;
21168;SDS011;10742;51.816;8.662;2022-07-29T10:24:50;4.45;;;2.00;;
21168;SDS011;10742;51.816;8.662;2022-07-29T10:28:11;5.30;;;1.58;;
21168;SDS011;10742;51.816;8.662;2022-07-29T10:31:42;4.00;;;1.92;;
21168;SDS011;10742;51.816;8.662;2022-07-29T10:35:15;7.90;;;1.63;;
21168;SDS011;10742;51.816;8.662;2022-07-29T10:39:13;2.95;;;1.80;;
21168;SDS011;10742;51.816;8.662;2022-07-29T10:42:40;7.72;;;1.85;;
21168;SDS011;10742;51.816;8.662;2022-07-29T10:46:03;12.73;;;2.20;;
21168;SDS011;10742;51.816;8.662;2022-07-29T10:49:25;3.75;;;2.03;;
21168;SDS011;10742;51.816;8.662;2022-07-29T10:56:28;6.90;;;2.05;;
21168;SDS011;10742;51.816;8.662;2022-07-29T11:10:28;7.32;;;2.03;;
21168;SDS011;10742;51.816;8.662;2022-07-29T11:13:51;9.45;;;2.05;;
21168;SDS011;10742;51.816;8.662;2022-07-29T11:17:14;4.78;;;2.10;;
21168;SDS011;10742;51.816;8.662;2022-07-29T11:20:36;3.45;;;1.70;;
21168;SDS011;10742;51.816;8.662;2022-07-29T11:24:12;5.88;;;2.00;;
21168;SDS011;10742;51.816;8.662;2022-07-29T11:27:35;5.18;;;2.20;;
21168;SDS011;10742;51.816;8.662;2022-07-29T11:30:59;3.30;;;1.55;;
21168;SDS011;10742;51.816;8.662;2022-07-29T11:41:49;10.05;;;2.20;;
21168;SDS011;10742;51.816;8.662;2022-07-29T11:45:11;4.05;;;1.88;;
21168;SDS011;10742;51.816;8.662;2022-07-29T11:48:34;6.93;;;2.30;;
21168;SDS011;10742;51.816;8.662;2022-07-29T11:51:56;6.63;;;2.05;;
21168;SDS011;10742;51.816;8.662;2022-07-29T11:55:19;8.02;;;2.38;;
21168;SDS011;10742;51.816;8.662;2022-07-29T11:58:44;10.65;;;2.25;;
21168;SDS011;10742;51.816;8.662;2022-07-29T12:02:06;8.55;;;1.98;;
21168;SDS011;10742;51.816;8.662;2022-07-29T12:05:45;7.13;;;2.25;;
21168;SDS011;10742;51.816;8.662;2022-07-29T12:09:09;10.93;;;2.30;;
21168;SDS011;10742;51.816;8.662;2022-07-29T12:12:31;5.30;;;2.22;;
21168;SDS011;10742;51.816;8.662;2022-07-29T12:15:56;3.50;;;1.80;;
21168;SDS011;10742;51.816;8.662;2022-07-29T12:19:19;8.07;;;1.90;;
21168;SDS011;10742;51.816;8.662;2022-07-29T12:22:41;3.90;;;1.83;;
21168;SDS011;10742;51.816;8.662;2022-07-29T12:26:05;4.72;;;2.10;;
21168;SDS011;10742;51.816;8.662;2022-07-29T12:29:27;6.22;;;2.10;;
21168;SDS011;10742;51.816;8.662;2022-07-29T12:32:48;5.45;;;2.03;;
21168;SDS011;10742;51.816;8.662;2022-07-29T12:36:10;5.05;;;1.88;;
21168;SDS011;10742;51.816;8.662;2022-07-29T12:39:37;3.53;;;1.90;;
21168;SDS011;10742;51.816;8.662;2022-07-29T12:43:09;7.72;;;2.45;;
21168;SDS011;10742;51.816;8.662;2022-07-29T12:46:32;5.43;;;1.90;;
21168;SDS011;10742;51.816;8.662;2022-07-29T12:50:13;6.82;;;2.42;;
21168;SDS011;10742;51.816;8.662;2022-07-29T12:53:39;5.45;;;1.92;;
21168;SDS011;10742;51.816;8.662;2022-07-29T12:57:00;4.30;;;2.38;;
21168;SDS011;10742;51.816;8.662;2022-07-29T13:00:22;2.88;;;2.00;;
21168;SDS011;10742;51.816;8.662;2022-07-29T13:03:54;5.82;;;1.90;;
21168;SDS011;10742;51.816;8.662;2022-07-29T13:07:26;3.55;;;2.10;;
21168;SDS011;10742;51.816;8.662;2022-07-29T13:10:50;2.67;;;1.80;;
21168;SDS011;10742;51.816;8.662;2022-07-29T13:14:12;2.30;;;1.90;;
21168;SDS011;10742;51.816;8.662;2022-07-29T13:17:49;5.35;;;2.25;;
21168;SDS011;10742;51.816;8.662;2022-07-29T13:21:12;7.25;;;2.17;;
21168;SDS011;10742;51.816;8.662;2022-07-29T13:24:44;7.68;;;2.20;;
21168;SDS011;10742;51.816;8.662;2022-07-29T13:28:10;5.10;;;2.20;;
21168;SDS011;10742;51.816;8.662;2022-07-29T13:31:32;7.47;;;1.98;;
21168;SDS011;10742;51.816;8.662;2022-07-29T13:34:54;3.72;;;1.98;;
21168;SDS011;10742;51.816;8.662;2022-07-29T13:38:16;3.42;;;1.90;;
21168;SDS011;10742;51.816;8.662;2022-07-29T13:41:37;4.93;;;2.10;;
21168;SDS011;10742;51.816;8.662;2022-07-29T13:44:59;3.42;;;2.20;;
21168;SDS011;10742;51.816;8.662;2022-07-29T13:48:21;6.85;;;2.13;;
21168;SDS011;10742;51.816;8.662;2022-07-29T13:51:42;5.15;;;1.98;;
21168;SDS011;10742;51.816;8.662;2022-07-29T13:55:04;4.90;;;2.65;;
21168;SDS011;10742;51.816;8.662;2022-07-29T13:58:26;2.95;;;2.17;;
21168;SDS011;10742;51.816;8.662;2022-07-29T14:01:47;8.13;;;2.33;;
21168;SDS011;10742;51.816;8.662;2022-07-29T14:05:10;6.63;;;2.50;;
21168;SDS011;10742;51.816;8.662;2022-07-29T14:08:32;7.05;;;2.30;;
21168;SDS011;10742;51.816;8.662;2022-07-29T14:11:54;4.28;;;2.40;;
21168;SDS011;10742;51.816;8.662;2022-07-29T14:15:16;5.97;;;2.20;;
21168;SDS011;10742;51.816;8.662;2022-07-29T14:18:40;6.57;;;2.30;;
21168;SDS011;10742;51.816;8.662;2022-07-29T14:22:05;8.15;;;2.35;;
21168;SDS011;10742;51.816;8.662;2022-07-29T14:25:27;5.30;;;2.60;;
21168;SDS011;10742;51.816;8.662;2022-07-29T14:28:49;4.18;;;2.17;;
21168;SDS011;10742;51.816;8.662;2022-07-29T14:32:10;7.00;;;2.67;;
21168;SDS011;10742;51.816;8.662;2022-07-29T14:35:31;3.25;;;2.33;;
21168;SDS011;10742;51.816;8.662;2022-07-29T14:38:53;7.60;;;2.30;;
21168;SDS011;10742;51.816;8.662;2022-07-29T14:42:14;6.28;;;2.63;;
21168;SDS011;10742;51.816;8.662;2022-07-29T14:45:36;6.28;;;2.60;;
21168;SDS011;10742;51.816;8.662;2022-07-29T14:48:57;6.78;;;2.90;;
21168;SDS011;10742;51.816;8.662;2022-07-29T14:52:19;6.70;;;2.45;;
21168;SDS011;10742;51.816;8.662;2022-07-29T14:55:40;9.10;;;2.40;;
21168;SDS011;10742;51.816;8.662;2022-07-29T14:59:02;3.40;;;2.38;;
21168;SDS011;10742;51.816;8.662;2022-07-29T15:02:24;6.57;;;2.40;;
21168;SDS011;10742;51.816;8.662;2022-07-29T15:05:55;7.10;;;2.55;;
21168;SDS011;10742;51.816;8.662;2022-07-29T15:09:16;11.25;;;2.58;;
21168;SDS011;10742;51.816;8.662;2022-07-29T15:12:38;5.15;;;2.38;;
21168;SDS011;10742;51.816;8.662;2022-07-29T15:15:59;12.10;;;2.53;;
21168;SDS011;10742;51.816;8.662;2022-07-29T15:19:21;8.98;;;2.78;;
21168;SDS011;10742;51.816;8.662;2022-07-29T15:22:42;6.15;;;2.50;;
21168;SDS011;10742;51.816;8.662;2022-07-29T15:26:03;6.53;;;2.40;;
21168;SDS011;10742;51.816;8.662;2022-07-29T15:29:25;9.88;;;3.15;;
21168;SDS011;10742;51.816;8.662;2022-07-29T15:32:46;6.35;;;2.10;;
21168;SDS011;10742;51.816;8.662;2022-07-29T15:36:08;18.23;;;2.72;;
21168;SDS011;10742;51.816;8.662;2022-07-29T15:39:29;4.03;;;2.03;;
21168;SDS011;10742;51.816;8.662;2022-07-29T15:42:50;8.10;;;2.33;;
21168;SDS011;10742;51.816;8.662;2022-07-29T15:46:12;10.05;;;2.20;;
21168;SDS011;10742;51.816;8.662;2022-07-29T15:49:52;10.98;;;3.13;;
21168;SDS011;10742;51.816;8.662;2022-07-29T15:53:14;8.75;;;2.63;;
21168;SDS011;10742;51.816;8.662;2022-07-29T15:56:35;7.28;;;2.60;;
21168;SDS011;10742;51.816;8.662;2022-07-29T15:59:57;9.43;;;2.40;;
21168;SDS011;10742;51.816;8.662;2022-07-29T16:03:18;8.98;;;2.55;;
21168;SDS011;10742;51.816;8.662;2022-07-29T16:06:40;9.48;;;2.50;;
21168;SDS011;10742;51.816;8.662;2022-07-29T16:10:02;7.50;;;2.63;;
21168;SDS011;10742;51.816;8.662;2022-07-29T16:13:24;5.80;;;2.53;;
21168;SDS011;10742;51.816;8.662;2022-07-29T16:16:45;9.10;;;2.47;;
21168;SDS011;10742;51.816;8.662;2022-07-29T16:20:06;9.07;;;2.67;;
21168;SDS011;10742;51.816;8.662;2022-07-29T16:23:28;8.05;;;2.90;;
21168;SDS011;10742;51.816;8.662;2022-07-29T16:26:50;12.50;;;2.78;;
21168;SDS011;10742;51.816;8.662;2022-07-29T16:30:12;8.68;;;2.15;;
21168;SDS011;10742;51.816;8.662;2022-07-29T16:33:34;9.65;;;2.78;;
21168;SDS011;10742;51.816;8.662;2022-07-29T16:36:56;10.18;;;2.92;;
21168;SDS011;10742;51.816;8.662;2022-07-29T16:40:17;4.78;;;2.40;;
21168;SDS011;10742;51.816;8.662;2022-07-29T16:43:38;7.18;;;2.60;;
21168;SDS011;10742;51.816;8.662;2022-07-29T16:47:00;7.97;;;2.78;;
21168;SDS011;10742;51.816;8.662;2022-07-29T16:50:21;11.05;;;2.90;;
21168;SDS011;10742;51.816;8.662;2022-07-29T16:53:43;5.25;;;2.65;;
21168;SDS011;10742;51.816;8.662;2022-07-29T16:57:05;6.60;;;2.75;;
21168;SDS011;10742;51.816;8.662;2022-07-29T17:00:27;6.45;;;3.10;;
21168;SDS011;10742;51.816;8.662;2022-07-29T17:03:48;7.28;;;2.78;;
21168;SDS011;10742;51.816;8.662;2022-07-29T17:07:28;6.15;;;2.67;;
21168;SDS011;10742;51.816;8.662;2022-07-29T17:10:49;11.13;;;3.42;;
21168;SDS011;10742;51.816;8.662;2022-07-29T17:14:11;9.50;;;2.60;;
21168;SDS011;10742;51.816;8.662;2022-07-29T17:17:32;11.95;;;3.33;;
21168;SDS011;10742;51.816;8.662;2022-07-29T17:20:54;7.95;;;2.70;;
21168;SDS011;10742;51.816;8.662;2022-07-29T17:24:15;13.93;;;3.03;;
21168;SDS011;10742;51.816;8.662;2022-07-29T17:27:37;6.55;;;2.58;;
21168;SDS011;10742;51.816;8.662;2022-07-29T17:30:58;6.75;;;2.90;;
21168;SDS011;10742;51.816;8.662;2022-07-29T17:34:19;8.25;;;2.65;;
21168;SDS011;10742;51.816;8.662;2022-07-29T17:37:40;10.77;;;2.63;;
21168;SDS011;10742;51.816;8.662;2022-07-29T17:41:02;9.07;;;2.67;;
21168;SDS011;10742;51.816;8.662;2022-07-29T17:44:23;4.85;;;2.72;;
21168;SDS011;10742;51.816;8.662;2022-07-29T17:47:45;7.88;;;2.75;;
21168;SDS011;10742;51.816;8.662;2022-07-29T17:51:06;5.55;;;2.58;;
21168;SDS011;10742;51.816;8.662;2022-07-29T17:54:28;8.43;;;3.00;;
21168;SDS011;10742;51.816;8.662;2022-07-29T17:57:49;9.18;;;3.00;;
21168;SDS011;10742;51.816;8.662;2022-07-29T18:01:11;5.53;;;2.60;;
21168;SDS011;10742;51.816;8.662;2022-07-29T18:04:32;5.85;;;2.55;;
21168;SDS011;10742;51.816;8.662;2022-07-29T18:07:54;6.18;;;2.55;;
21168;SDS011;10742;51.816;8.662;2022-07-29T18:11:16;9.27;;;2.80;;
21168;SDS011;10742;51.816;8.662;2022-07-29T18:14:37;13.27;;;3.30;;
21168;SDS011;10742;51.816;8.662;2022-07-29T18:17:59;7.70;;;3.03;;
21168;SDS011;10742;51.816;8.662;2022-07-29T18:21:20;9.23;;;2.65;;
21168;SDS011;10742;51.816;8.662;2022-07-29T18:24:41;9.13;;;2.60;;
21168;SDS011;10742;51.816;8.662;2022-07-29T18:28:03;11.77;;;3.00;;
21168;SDS011;10742;51.816;8.662;2022-07-29T18:31:25;6.78;;;3.08;;
21168;SDS011;10742;51.816;8.662;2022-07-29T18:34:47;9.15;;;2.88;;
21168;SDS011;10742;51.816;8.662;2022-07-29T18:38:09;13.90;;;3.05;;
21168;SDS011;10742;51.816;8.662;2022-07-29T18:41:30;10.93;;;3.33;;
21168;SDS011;10742;51.816;8.662;2022-07-29T18:44:52;8.38;;;3.10;;
21168;SDS011;10742;51.816;8.662;2022-07-29T18:48:14;10.57;;;3.22;;
21168;SDS011;10742;51.816;8.662;2022-07-29T18:51:35;7.50;;;3.40;;
21168;SDS011;10742;51.816;8.662;2022-07-29T18:54:58;8.07;;;3.40;;
21168;SDS011;10742;51.816;8.662;2022-07-29T18:58:20;9.38;;;3.40;;
21168;SDS011;10742;51.816;8.662;2022-07-29T19:01:42;8.45;;;3.92;;
21168;SDS011;10742;51.816;8.662;2022-07-29T19:05:05;11.30;;;3.55;;
21168;SDS011;10742;51.816;8.662;2022-07-29T19:08:27;13.70;;;3.85;;
21168;SDS011;10742;51.816;8.662;2022-07-29T19:11:48;12.80;;;3.60;;
21168;SDS011;10742;51.816;8.662;2022-07-29T19:15:12;8.32;;;3.92;;
21168;SDS011;10742;51.816;8.662;2022-07-29T19:18:33;14.45;;;4.38;;
21168;SDS011;10742;51.816;8.662;2022-07-29T19:21:55;9.82;;;4.25;;
21168;SDS011;10742;51.816;8.662;2022-07-29T19:25:17;9.40;;;4.15;;
21168;SDS011;10742;51.816;8.662;2022-07-29T19:28:39;9.13;;;4.00;;
21168;SDS011;10742;51.816;8.662;2022-07-29T19:32:00;9.75;;;3.70;;
21168;SDS011;10742;51.816;8.662;2022-07-29T19:35:21;9.10;;;3.78;;
21168;SDS011;10742;51.816;8.662;2022-07-29T19:38:51;10.45;;;3.85;;
21168;SDS011;10742;51.816;8.662;2022-07-29T19:42:13;10.18;;;4.13;;
21168;SDS011;10742;51.816;8.662;2022-07-29T19:45:34;13.65;;;4.78;;
21168;SDS011;10742;51.816;8.662;2022-07-29T19:48:56;19.50;;;4.88;;
21168;SDS011;10742;51.816;8.662;2022-07-29T19:52:18;9.90;;;4.68;;
21168;SDS011;10742;51.816;8.662;2022-07-29T19:55:39;13.48;;;4.90;;
21168;SDS011;10742;51.816;8.662;2022-07-29T19:59:02;8.52;;;5.00;;
21168;SDS011;10742;51.816;8.662;2022-07-29T20:02:24;7.60;;;5.05;;
21168;SDS011;10742;51.816;8.662;2022-07-29T20:05:47;7.65;;;5.07;;
21168;SDS011;10742;51.816;8.662;2022-07-29T20:09:11;10.80;;;5.72;;
21168;SDS011;10742;51.816;8.662;2022-07-29T20:12:38;10.98;;;5.43;;
21168;SDS011;10742;51.816;8.662;2022-07-29T20:16:06;12.50;;;5.68;;
21168;SDS011;10742;51.816;8.662;2022-07-29T20:19:29;13.20;;;5.97;;
21168;SDS011;10742;51.816;8.662;2022-07-29T20:22:52;10.88;;;5.55;;
21168;SDS011;10742;51.816;8.662;2022-07-29T20:26:14;11.82;;;5.55;;
21168;SDS011;10742;51.816;8.662;2022-07-29T20:29:36;10.05;;;5.38;;
21168;SDS011;10742;51.816;8.662;2022-07-29T20:32:58;8.77;;;5.28;;
21168;SDS011;10742;51.816;8.662;2022-07-29T20:36:19;8.10;;;5.10;;
21168;SDS011;10742;51.816;8.662;2022-07-29T20:39:41;10.38;;;6.03;;
21168;SDS011;10742;51.816;8.662;2022-07-29T20:43:02;15.98;;;9.38;;
21168;SDS011;10742;51.816;8.662;2022-07-29T20:46:25;31.65;;;13.20;;
21168;SDS011;10742;51.816;8.662;2022-07-29T20:49:46;21.67;;;11.07;;
21168;SDS011;10742;51.816;8.662;2022-07-29T20:53:08;41.85;;;19.67;;
21168;SDS011;10742;51.816;8.662;2022-07-29T20:56:30;15.65;;;8.30;;
21168;SDS011;10742;51.816;8.662;2022-07-29T20:59:53;23.45;;;10.38;;